Time;durP1;ratioP1;P1;durP2;ratioP2;P2;SDS_P1;SDS_P2;PMS_P1;PMS_P2;Temp;Humidity;BMP_temperature;BMP_pressure;BME280_temperature;BME280_humidity;BME280_pressure;Samples;Min_cycle;Max_cycle;Signal;HPM_P1;HPM_P2
2021/12/28 00:00:27;;;;;;;26.53;9.70;;;;;;;-5.35;58.45;99601.25;5017802;28;20045;-68
2021/12/28 00:02:55;;;;;;;32.38;10.38;;;;;;;-5.38;58.52;99591.75;5043475;28;20080;-69
2021/12/28 00:05:23;;;;;;;;;;;;;;;-5.40;58.63;99593.75;5039407;28;20091;-69
2021/12/28 00:07:49;;;;;;;28.90;10.20;;;;;;;-5.48;58.47;99597.31;5030417;28;19925;-68
2021/12/28 00:10:17;;;;;;;27.97;8.83;;;;;;;-5.55;59.04;99602.50;5049136;28;20057;-69
2021/12/28 00:12:44;;;;;;;23.23;8.80;;;;;;;-5.55;58.94;99599.00;5053954;28;20041;-68
2021/12/28 00:18:00;;;;;;;27.70;8.07;;;;;;;-5.50;58.49;99604.66;5039407;28;20049;-68
2021/12/28 00:20:29;;;;;;;27.80;9.43;;;;;;;-5.50;58.59;99609.13;5035189;28;20068;-69
2021/12/28 00:22:55;;;;;;;23.47;8.33;;;;;;;-5.53;58.70;99609.50;5042907;28;20045;-69
2021/12/28 00:25:21;;;;;;;22.33;7.73;;;;;;;-5.62;58.47;99596.22;5042004;28;20048;-69
2021/12/28 00:27:47;;;;;;;23.73;8.63;;;;;;;-5.50;58.64;99611.78;5047281;28;20041;-68
2021/12/28 00:30:13;;;;;;;22.10;8.93;;;;;;;-5.53;58.47;99613.00;5049965;28;20435;-70
2021/12/28 00:32:39;;;;;;;23.30;8.23;;;;;;;-5.51;58.37;99610.97;5040539;28;20049;-70
2021/12/28 00:35:06;;;;;;;21.30;7.53;;;;;;;-5.43;58.05;99613.59;5044021;28;20041;-69
2021/12/28 00:37:34;;;;;;;23.42;8.80;;;;;;;-5.42;58.03;99601.91;5044703;28;20044;-68
2021/12/28 00:39:59;;;;;;;20.73;7.38;;;;;;;-5.41;57.88;99605.44;5048345;28;20049;-68
2021/12/28 00:42:25;;;;;;;21.20;8.20;;;;;;;-5.59;58.17;99582.53;5036885;28;20060;-69
2021/12/28 00:44:51;;;;;;;23.33;8.30;;;;;;;-5.45;58.10;99609.47;5065182;28;20069;-69
2021/12/28 00:47:17;;;;;;;24.57;8.27;;;;;;;-5.39;57.91;99611.41;5037259;28;20402;-69
2021/12/28 00:49:43;;;;;;;20.07;7.87;;;;;;;-5.44;57.63;99605.78;5042205;28;20037;-69
2021/12/28 00:52:09;;;;;;;21.87;7.60;;;;;;;-5.48;57.99;99602.63;5043670;28;20042;-68
2021/12/28 00:54:36;;;;;;;21.43;7.63;;;;;;;-5.50;57.56;99598.47;5044399;28;20592;-69
2021/12/28 00:57:03;;;;;;;22.67;7.90;;;;;;;-5.48;57.66;99599.97;5036692;28;20053;-69
2021/12/28 00:59:29;;;;;;;20.10;7.50;;;;;;;-5.49;57.58;99598.31;5042682;28;20456;-68
2021/12/28 01:01:55;;;;;;;19.63;7.47;;;;;;;-5.46;57.42;99607.81;5041705;28;20156;-70
2021/12/28 01:04:21;;;;;;;25.50;8.13;;;;;;;-5.37;57.28;99612.06;5045037;28;20071;-70
2021/12/28 01:06:47;;;;;;;21.50;7.97;;;;;;;-5.29;57.03;99612.03;5042774;28;20116;-69
2021/12/28 01:09:13;;;;;;;20.40;6.83;;;;;;;-5.25;57.22;99612.47;5039867;28;20041;-70
2021/12/28 01:11:42;;;;;;;20.50;7.60;;;;;;;-5.20;56.89;99619.97;5019015;28;20042;-69
2021/12/28 01:14:08;;;;;;;20.13;7.87;;;;;;;-5.20;56.62;99622.63;5042839;28;20032;-70
2021/12/28 01:16:34;;;;;;;24.67;8.00;;;;;;;-5.21;56.67;99620.97;5044257;28;20056;-69
2021/12/28 01:19:00;;;;;;;20.97;7.93;;;;;;;-5.30;56.95;99612.19;5039094;28;20056;-69
2021/12/28 01:21:26;;;;;;;19.30;7.97;;;;;;;-5.28;56.93;99624.34;5039314;28;20048;-70
2021/12/28 01:23:52;;;;;;;19.63;7.73;;;;;;;-5.20;57.02;99638.63;5039302;28;20049;-70
2021/12/28 01:26:18;;;;;;;21.03;7.47;;;;;;;-5.21;56.67;99623.63;5040442;28;20498;-69
2021/12/28 01:28:46;;;;;;;24.27;8.77;;;;;;;-5.27;56.95;99631.34;5044402;28;20099;-69
2021/12/28 01:31:12;;;;;;;25.17;9.30;;;;;;;-5.24;56.69;99629.31;5040729;28;20045;-68
2021/12/28 01:33:38;;;;;;;20.97;8.10;;;;;;;-5.28;56.96;99635.00;5030394;28;20107;-68
2021/12/28 01:36:04;;;;;;;27.07;8.60;;;;;;;-5.24;56.88;99629.31;5039684;28;20553;-69
2021/12/28 01:38:30;;;;;;;27.97;9.70;;;;;;;-5.19;56.65;99632.28;5047753;28;20541;-69
2021/12/28 01:40:56;;;;;;;32.73;10.80;;;;;;;-5.22;56.56;99637.97;5054433;28;20041;-70
2021/12/28 01:43:24;;;;;;;28.27;10.97;;;;;;;-5.23;56.59;99641.66;5053818;28;20044;-69
2021/12/28 01:45:53;;;;;;;40.90;13.53;;;;;;;-5.25;56.38;99647.16;5050527;28;20053;-68
2021/12/28 01:48:22;;;;;;;35.17;12.77;;;;;;;-5.23;56.84;99646.97;5058201;28;20136;-69
2021/12/28 01:50:50;;;;;;;30.90;11.30;;;;;;;-5.32;56.75;99644.34;5042903;28;20037;-68
2021/12/28 01:53:17;;;;;;;34.30;10.87;;;;;;;-5.31;56.74;99646.03;5042310;28;20072;-69
2021/12/28 01:55:46;;;;;;;27.92;10.13;;;;;;;-5.40;56.67;99649.72;5037371;28;20140;-69
2021/12/28 01:58:12;;;;;;;20.67;8.17;;;;;;;-5.29;56.42;99662.69;5042734;28;20041;-69
2021/12/28 02:00:40;;;;;;;20.10;7.37;;;;;;;-5.25;56.24;99667.66;5045871;28;20422;-70
2021/12/28 02:03:08;;;;;;;;;;;;;;;-5.29;56.34;99662.69;5046703;28;20041;-69
2021/12/28 02:05:35;;;;;;;23.47;8.00;;;;;;;-5.24;56.29;99659.47;5043087;28;19924;-70
2021/12/28 02:08:01;;;;;;;21.30;6.83;;;;;;;-5.24;56.16;99663.97;5048426;28;20490;-69
2021/12/28 02:10:27;;;;;;;25.10;9.33;;;;;;;-5.23;56.40;99668.31;5037655;28;20051;-70
2021/12/28 02:12:53;;;;;;;36.53;13.40;;;;;;;-5.23;56.40;99673.63;5040572;28;20068;-70
2021/12/28 02:15:19;;;;;;;38.60;13.53;;;;;;;-5.19;56.64;99674.94;5046282;28;20041;-69
2021/12/28 02:17:46;;;;;;;50.00;14.03;;;;;;;-5.19;56.67;99672.28;5030117;28;20168;-70
2021/12/28 02:20:17;;;;;;;47.53;14.90;;;;;;;-5.24;56.64;99672.78;5039914;28;20518;-70
2021/12/28 02:22:43;;;;;;;48.80;15.83;;;;;;;-5.29;56.87;99694.66;5036097;28;20530;-69
2021/12/28 02:25:14;;;;;;;54.70;16.10;;;;;;;-5.30;57.22;99682.34;5045456;28;20037;-70
2021/12/28 02:27:40;;;;;;;39.30;14.63;;;;;;;-5.27;57.17;99682.00;5041298;28;20119;-70
2021/12/28 02:30:10;;;;;;;51.80;14.20;;;;;;;-5.28;56.85;99679.50;5035239;28;20541;-70
2021/12/28 02:32:40;;;;;;;32.27;12.73;;;;;;;-5.28;57.19;99685.66;5039943;28;20044;-69
2021/12/28 02:35:08;;;;;;;43.17;15.17;;;;;;;-5.35;57.36;99678.53;5040873;28;20045;-69
2021/12/28 02:37:35;;;;;;;40.20;13.80;;;;;;;-5.25;57.10;99687.13;5042734;28;20532;-70
2021/12/28 02:40:02;;;;;;;36.17;12.52;;;;;;;-5.28;57.19;99693.66;5035989;28;20049;-70
2021/12/28 02:42:28;;;;;;;38.58;12.30;;;;;;;-5.37;57.57;99678.69;5062709;28;20481;-70
2021/12/28 02:45:07;;;;;;;32.03;12.03;;;;;;;-5.23;57.19;99692.31;5050562;28;20065;-70
2021/12/28 02:47:33;;;;;;;34.27;11.70;;;;;;;-5.21;57.53;99687.63;5042031;28;20506;-68
2021/12/28 02:50:00;;;;;;;31.43;10.33;;;;;;;-5.20;57.36;99687.47;5036713;28;20132;-67
2021/12/28 02:52:26;;;;;;;29.60;10.10;;;;;;;-5.18;57.35;99692.59;5047433;28;20100;-68
2021/12/28 02:54:56;;;;;;;31.87;9.70;;;;;;;-5.21;57.15;99683.13;5044086;28;20583;-68
2021/12/28 02:57:22;;;;;;;27.67;9.83;;;;;;;-5.20;57.25;99690.13;5039379;28;20137;-68
2021/12/28 02:59:50;;;;;;;27.80;8.73;;;;;;;-5.13;57.47;99699.06;5043539;28;20136;-68
2021/12/28 03:02:18;;;;;;;29.13;8.70;;;;;;;-5.18;57.48;99696.13;5015822;28;20049;-69
2021/12/28 03:04:45;;;;;;;24.90;9.17;;;;;;;-5.19;57.61;99693.59;5047866;28;20053;-69
2021/12/28 03:07:11;;;;;;;24.50;8.73;;;;;;;-5.23;57.53;99698.44;5060548;28;20041;-68
2021/12/28 03:09:38;;;;;;;31.30;9.77;;;;;;;-5.27;57.75;99699.81;5046617;28;20111;-68
2021/12/28 03:12:06;;;;;;;22.63;8.40;;;;;;;-5.27;57.80;99691.81;5055899;28;20422;-69
2021/12/28 03:14:33;;;;;;;22.90;8.27;;;;;;;-5.19;57.45;99698.94;5051347;28;20045;-69
2021/12/28 03:16:58;;;;;;;23.33;8.37;;;;;;;-5.18;57.85;99703.28;5035722;28;20053;-69
2021/12/28 03:19:24;;;;;;;26.97;8.73;;;;;;;-5.19;57.60;99704.28;5057051;28;20090;-69
2021/12/28 03:21:50;;;;;;;21.87;9.47;;;;;;;-5.13;57.47;99707.06;5041009;28;20478;-69
2021/12/28 03:24:17;;;;;;;25.93;8.67;;;;;;;-5.09;57.27;99715.56;5034570;28;20840;-68
2021/12/28 03:26:43;;;;;;;24.55;9.30;;;;;;;-5.12;57.63;99715.91;5046001;28;20049;-70
2021/12/28 03:29:11;;;;;;;28.00;8.93;;;;;;;-5.19;57.74;99712.28;5047892;28;20055;-69
2021/12/28 03:31:37;;;;;;;24.90;9.43;;;;;;;-5.14;57.52;99701.94;5047276;28;20049;-69
2021/12/28 03:34:03;;;;;;;28.17;9.30;;;;;;;-5.15;57.71;99703.75;5044176;28;20098;-70
2021/12/28 03:36:32;;;;;;;25.00;9.40;;;;;;;-5.17;57.68;99707.59;5032349;28;20054;-69
2021/12/28 03:39:00;;;;;;;24.67;9.43;;;;;;;-5.14;57.49;99712.59;5025403;28;20103;-69
2021/12/28 03:41:31;;;;;;;26.70;10.05;;;;;;;-5.09;57.57;99715.56;5030429;28;20041;-70
2021/12/28 03:43:57;;;;;;;25.23;9.47;;;;;;;-5.18;57.61;99700.59;5036185;28;20132;-69
2021/12/28 03:46:29;;;;;;;33.63;10.73;;;;;;;-5.08;57.68;99711.88;5031035;28;20132;-69
2021/12/28 03:48:56;;;;;;;33.73;11.27;;;;;;;-5.12;57.80;99706.06;5045692;28;20045;-69
2021/12/28 03:51:22;;;;;;;28.67;10.37;;;;;;;-5.15;57.54;99703.75;5043172;28;20053;-70
2021/12/28 03:53:49;;;;;;;30.40;10.53;;;;;;;-5.34;58.14;99707.66;5040695;28;20094;-69
2021/12/28 03:56:16;;;;;;;29.95;12.10;;;;;;;-5.41;58.48;99710.19;5033642;28;20061;-71
2021/12/28 03:58:43;;;;;;;25.73;10.50;;;;;;;-5.45;58.62;99706.22;5052463;28;20073;-70
2021/12/28 04:01:11;;;;;;;27.47;11.07;;;;;;;-5.51;58.50;99698.09;5036503;28;20460;-71
2021/12/28 04:03:39;;;;;;;35.73;10.90;;;;;;;-5.50;58.65;99710.41;5058795;28;20047;-72
2021/12/28 04:06:09;;;;;;;;;;;;;;;-5.39;58.36;99714.50;5035367;28;20158;-69
2021/12/28 04:08:37;;;;;;;29.50;10.27;;;;;;;-5.35;58.06;99716.66;5045384;28;19929;-73
2021/12/28 04:11:15;;;;;;;34.88;11.75;;;;;;;-5.31;57.78;99723.34;5034868;28;20115;-72
2021/12/28 04:13:42;;;;;;;31.97;11.53;;;;;;;-5.31;57.99;99718.00;5035005;28;20132;-71
2021/12/28 04:16:09;;;;;;;39.03;11.43;;;;;;;-5.31;57.86;99722.50;5030873;28;20045;-71
2021/12/28 04:18:36;;;;;;;32.17;10.70;;;;;;;-5.29;58.11;99724.00;5043789;28;20057;-70
2021/12/28 04:21:04;;;;;;;27.52;10.40;;;;;;;-5.25;58.10;99720.97;5045397;28;20047;-72
2021/12/28 04:23:30;;;;;;;22.95;8.57;;;;;;;-5.38;58.07;99717.03;5054930;28;20052;-72
2021/12/28 04:25:56;;;;;;;27.97;10.07;;;;;;;-5.31;57.99;99723.34;5061270;28;20056;-71
2021/12/28 04:28:22;;;;;;;24.10;9.43;;;;;;;-5.30;57.89;99719.66;5051537;28;20052;-71
2021/12/28 04:30:48;;;;;;;27.13;10.27;;;;;;;-5.36;57.81;99706.19;5037856;28;20037;-71
2021/12/28 04:33:14;;;;;;;27.87;10.37;;;;;;;-5.21;58.03;99723.13;5035604;28;20067;-71
2021/12/28 04:35:40;;;;;;;27.10;9.90;;;;;;;-5.21;57.65;99719.63;5037849;28;20518;-71
2021/12/28 04:38:08;;;;;;;28.43;9.00;;;;;;;-5.25;58.12;99727.13;5038218;28;20052;-70
2021/12/28 04:40:34;;;;;;;26.55;10.00;;;;;;;-5.25;58.07;99726.31;5049130;28;20048;-71
2021/12/28 04:43:00;;;;;;;26.87;8.97;;;;;;;-5.28;57.93;99731.00;5044108;28;20049;-69
2021/12/28 04:45:26;;;;;;;30.87;9.37;;;;;;;-5.25;58.16;99729.78;5046248;28;20052;-72
2021/12/28 04:47:52;;;;;;;22.83;9.47;;;;;;;-5.17;58.00;99729.78;5037831;28;20041;-72
2021/12/28 04:50:18;;;;;;;24.90;9.43;;;;;;;-5.10;57.91;99734.41;5044084;28;20037;-73
2021/12/28 04:52:45;;;;;;;21.47;8.27;;;;;;;-5.18;57.94;99735.25;5055321;28;20041;-74
2021/12/28 04:55:15;;;;;;;22.30;8.63;;;;;;;-5.16;57.91;99743.91;5031018;28;20076;-72
2021/12/28 04:57:43;;;;;;;24.00;8.80;;;;;;;-5.03;57.96;99751.38;5033762;28;20048;-73
2021/12/28 05:00:13;;;;;;;25.52;8.68;;;;;;;-5.02;57.61;99742.38;5044301;28;20040;-73
2021/12/28 05:02:39;;;;;;;23.17;8.90;;;;;;;-5.09;57.87;99731.56;5051132;28;20045;-72
2021/12/28 05:05:05;;;;;;;24.87;8.83;;;;;;;-5.18;57.72;99724.59;5042912;28;20586;-72
2021/12/28 05:07:31;;;;;;;28.13;9.23;;;;;;;-5.06;57.99;99752.56;5022160;28;20501;-72
2021/12/28 05:09:58;;;;;;;23.07;7.93;;;;;;;-5.12;57.97;99753.25;5039915;28;20075;-72
2021/12/28 05:12:27;;;;;;;20.20;8.18;;;;;;;-5.08;58.06;99757.22;5036884;28;20131;-72
2021/12/28 05:14:53;;;;;;;25.37;9.00;;;;;;;-5.06;57.87;99767.75;5038974;28;20049;-72
2021/12/28 05:17:19;;;;;;;21.10;8.73;;;;;;;-5.04;58.08;99768.38;5040243;28;20053;-72
2021/12/28 05:19:45;;;;;;;19.87;9.03;;;;;;;-5.14;57.52;99753.41;5048256;28;20417;-73
2021/12/28 05:22:12;;;;;;;25.00;9.40;;;;;;;-4.99;57.63;99768.69;5055529;28;20142;-73
2021/12/28 05:24:39;;;;;;;22.90;9.40;;;;;;;-5.12;57.98;99772.75;5027659;28;20049;-73
2021/12/28 05:27:05;;;;;;;24.17;8.63;;;;;;;-5.11;57.94;99776.25;5029824;28;20069;-72
2021/12/28 05:29:33;;;;;;;18.17;7.73;;;;;;;-5.20;57.75;99774.59;5055921;28;20091;-73
2021/12/28 05:31:59;;;;;;;25.63;7.90;;;;;;;-5.07;57.87;99782.88;5052429;28;20053;-74
2021/12/28 05:34:25;;;;;;;21.80;7.67;;;;;;;-5.11;57.71;99800.25;5043529;28;20393;-73
2021/12/28 05:36:51;;;;;;;21.10;8.03;;;;;;;-5.12;57.75;99787.91;5032900;28;20152;-73
2021/12/28 05:39:17;;;;;;;20.73;7.43;;;;;;;-5.10;57.39;99791.25;5032507;28;20045;-73
2021/12/28 05:41:43;;;;;;;16.80;7.07;;;;;;;-5.08;57.50;99791.91;5048364;28;20051;-73
2021/12/28 05:44:09;;;;;;;20.50;7.20;;;;;;;-5.03;57.43;99796.72;5033580;28;20041;-72
2021/12/28 05:46:37;;;;;;;17.67;7.20;;;;;;;-5.02;57.19;99804.53;5043664;28;20095;-74
2021/12/28 05:49:04;;;;;;;20.73;7.43;;;;;;;-5.06;57.23;99800.56;5054215;28;20049;-73
2021/12/28 05:51:30;;;;;;;16.27;6.50;;;;;;;-5.01;57.55;99805.38;5032380;28;20061;-73
2021/12/28 05:53:56;;;;;;;20.93;8.10;;;;;;;-5.01;57.48;99816.03;5033704;28;20049;-73
2021/12/28 05:56:22;;;;;;;22.80;6.80;;;;;;;-5.06;57.42;99799.75;5052652;28;20083;-73
2021/12/28 05:58:48;;;;;;;18.03;6.73;;;;;;;-4.94;57.35;99808.19;5053099;28;20139;-73
2021/12/28 06:01:14;;;;;;;22.03;7.30;;;;;;;-4.92;57.17;99798.97;5044467;28;20132;-72
2021/12/28 06:03:41;;;;;;;18.17;7.20;;;;;;;-4.84;57.10;99806.97;5048099;28;20048;-72
2021/12/28 06:06:07;;;;;;;25.95;9.40;;;;;;;-4.82;56.88;99803.28;5051541;28;20045;-73
2021/12/28 06:08:33;;;;;;;21.17;7.57;;;;;;;-4.80;56.77;99803.94;5028719;28;20434;-73
2021/12/28 06:11:00;;;;;;;23.07;7.83;;;;;;;-4.74;56.77;99812.09;5024287;28;20124;-73
2021/12/28 06:13:26;;;;;;;19.80;6.53;;;;;;;-4.76;56.84;99822.09;5050771;28;20053;-73
2021/12/28 06:15:53;;;;;;;19.07;7.13;;;;;;;-4.81;56.86;99808.47;5014819;28;20303;-72
2021/12/28 06:18:19;;;;;;;17.93;6.90;;;;;;;-4.77;56.61;99812.44;5037879;28;20053;-72
2021/12/28 06:20:46;;;;;;;18.90;7.33;;;;;;;-4.81;57.15;99810.28;5058429;28;20052;-72
2021/12/28 06:23:12;;;;;;;17.60;6.80;;;;;;;-4.75;56.69;99815.75;5050214;28;20410;-72
2021/12/28 06:25:38;;;;;;;23.70;8.37;;;;;;;-4.71;56.75;99814.41;5045435;28;20060;-72
2021/12/28 06:28:04;;;;;;;17.57;7.00;;;;;;;-4.67;56.88;99814.88;5042919;28;20135;-71
2021/12/28 06:30:31;;;;;;;26.63;8.10;;;;;;;-4.71;56.57;99811.72;5036626;28;20276;-72
2021/12/28 06:32:57;;;;;;;25.30;8.77;;;;;;;-4.71;56.57;99800.25;5047495;28;20033;-72
2021/12/28 06:35:23;;;;;;;26.60;10.53;;;;;;;-4.65;56.55;99817.41;5034946;28;20041;-72
2021/12/28 06:37:50;;;;;;;25.70;9.20;;;;;;;-4.64;56.87;99813.72;5037779;28;20448;-71
2021/12/28 06:40:16;;;;;;;22.92;8.85;;;;;;;-4.63;56.66;99818.03;5045520;28;20049;-72
2021/12/28 06:42:42;;;;;;;23.03;8.83;;;;;;;-4.62;56.65;99823.19;5047834;28;20037;-72
2021/12/28 06:45:09;;;;;;;25.40;9.80;;;;;;;-4.65;56.75;99825.41;5067097;28;20041;-72
2021/12/28 06:47:35;;;;;;;26.37;10.13;;;;;;;-4.57;56.67;99841.34;5048265;28;20072;-72
2021/12/28 06:50:02;;;;;;;21.03;7.90;;;;;;;-4.72;56.75;99822.59;5049097;28;20048;-72
2021/12/28 06:52:29;;;;;;;24.10;8.52;;;;;;;-4.79;57.10;99840.28;5043729;28;20051;-70
2021/12/28 06:54:56;;;;;;;19.03;8.10;;;;;;;-4.82;57.02;99833.47;5049617;28;20480;-71
2021/12/28 06:57:22;;;;;;;24.30;8.52;;;;;;;-4.77;56.70;99824.94;5053397;28;20110;-71
2021/12/28 06:59:48;;;;;;;22.80;8.27;;;;;;;-4.76;57.04;99842.59;5045812;28;20502;-72
2021/12/28 07:02:16;;;;;;;23.97;8.33;;;;;;;-4.80;57.00;99849.31;5031049;28;20047;-71
2021/12/28 07:04:42;;;;;;;;;;;;;;;-4.74;56.94;99854.78;5061553;28;20049;-72
2021/12/28 07:07:08;;;;;;;21.77;8.10;;;;;;;-4.78;57.14;99857.97;5039708;28;19932;-72
2021/12/28 07:09:35;;;;;;;22.57;8.93;;;;;;;-4.87;57.69;99863.34;5032803;28;20085;-72
2021/12/28 07:12:04;;;;;;;27.70;9.30;;;;;;;-4.85;57.50;99850.66;5027286;28;20041;-73
2021/12/28 07:14:30;;;;;;;25.33;9.33;;;;;;;-5.05;58.04;99847.56;5048171;28;20072;-73
2021/12/28 07:16:57;;;;;;;25.00;9.07;;;;;;;-5.12;58.91;99852.75;5026690;28;20049;-69
2021/12/28 07:19:24;;;;;;;26.88;10.40;;;;;;;-5.05;58.97;99857.41;5037739;28;20045;-68
2021/12/28 07:21:50;;;;;;;31.03;11.03;;;;;;;-5.04;58.80;99854.56;5041801;28;20386;-69
2021/12/28 07:24:16;;;;;;;31.93;11.20;;;;;;;-4.92;58.67;99864.84;5036712;28;20052;-70
2021/12/28 07:26:42;;;;;;;32.90;11.77;;;;;;;-4.94;58.75;99865.00;5039192;28;20155;-71
2021/12/28 07:29:11;;;;;;;32.17;11.90;;;;;;;-4.91;58.76;99866.53;5011001;28;20051;-68
2021/12/28 07:31:38;;;;;;;29.23;11.67;;;;;;;-4.86;58.67;99877.50;5050279;28;20045;-67
2021/12/28 07:34:05;;;;;;;34.60;13.32;;;;;;;-4.95;59.03;99854.53;5050470;28;20485;-67
2021/12/28 07:36:31;;;;;;;37.87;13.13;;;;;;;-4.88;59.12;99871.50;5049378;28;20107;-68
2021/12/28 07:38:57;;;;;;;38.83;14.40;;;;;;;-4.82;59.06;99878.00;5040619;28;20524;-69
2021/12/28 07:41:23;;;;;;;33.40;12.93;;;;;;;-4.76;58.93;99878.13;5037801;28;20049;-68
2021/12/28 07:43:49;;;;;;;35.23;14.43;;;;;;;-4.72;58.95;99892.78;5044895;28;20042;-69
2021/12/28 07:46:17;;;;;;;35.03;14.53;;;;;;;-4.69;58.79;99886.28;5035457;28;20054;-69
2021/12/28 07:48:43;;;;;;;36.65;14.45;;;;;;;-4.65;58.75;99882.25;5033446;28;20060;-68
2021/12/28 07:51:09;;;;;;;43.53;14.23;;;;;;;-4.64;58.91;99891.09;5036265;28;20605;-70
2021/12/28 07:53:35;;;;;;;30.80;12.00;;;;;;;-4.62;58.82;99891.78;5048702;28;20139;-69
2021/12/28 07:56:02;;;;;;;37.63;14.10;;;;;;;-4.65;59.11;99890.25;5053747;28;20524;-67
2021/12/28 07:58:29;;;;;;;34.50;12.13;;;;;;;-4.62;59.21;99881.09;5033978;28;20057;-69
2021/12/28 08:00:55;;;;;;;33.57;13.97;;;;;;;-4.58;58.89;99885.06;5035006;28;20565;-69
2021/12/28 08:03:24;;;;;;;42.17;16.03;;;;;;;-4.61;59.14;99880.91;5036491;28;20061;-68
2021/12/28 08:05:52;;;;;;;39.60;15.33;;;;;;;-4.60;59.07;99898.59;5027255;28;20040;-67
2021/12/28 08:08:18;;;;;;;46.63;16.92;;;;;;;-4.59;59.12;99886.06;5051025;28;20521;-67
2021/12/28 08:10:44;;;;;;;45.90;17.97;;;;;;;-4.49;58.67;99878.69;5039479;28;20589;-68
2021/12/28 08:13:11;;;;;;;52.13;17.80;;;;;;;-4.49;59.08;99884.03;5054989;28;20431;-68
2021/12/28 08:15:37;;;;;;;38.90;16.08;;;;;;;-4.47;59.00;99894.53;5039615;28;20559;-69
2021/12/28 08:18:05;;;;;;;41.57;15.33;;;;;;;-4.47;58.99;99882.03;5034827;28;20140;-69
2021/12/28 08:20:32;;;;;;;34.95;13.48;;;;;;;-4.41;59.32;99891.19;5031984;28;20112;-68
2021/12/28 08:22:58;;;;;;;38.10;14.57;;;;;;;-4.48;59.25;99887.53;5059745;28;20044;-70
2021/12/28 08:25:25;;;;;;;37.93;13.93;;;;;;;-4.44;59.29;99894.19;5043172;28;20183;-70
2021/12/28 08:27:51;;;;;;;40.53;15.37;;;;;;;-4.46;59.51;99889.03;5043717;28;20040;-70
2021/12/28 08:30:19;;;;;;;35.03;13.67;;;;;;;-4.43;59.34;99893.19;5057596;28;20073;-70
2021/12/28 08:32:45;;;;;;;;;;;;;;;-4.33;59.07;99884.97;5054303;28;20452;-69
2021/12/28 08:35:12;;;;;;;36.87;14.93;;;;;;;-4.31;58.71;99885.63;5042974;28;19928;-70
2021/12/28 08:37:40;;;;;;;43.43;15.47;;;;;;;-4.29;58.63;99880.94;5053081;28;20048;-70
2021/12/28 08:40:08;;;;;;;55.00;14.07;;;;;;;-4.25;58.88;99889.44;5049916;28;20139;-68
2021/12/28 08:42:34;;;;;;;37.70;14.47;;;;;;;-4.21;58.64;99888.91;5052628;28;20044;-71
2021/12/28 08:45:01;;;;;;;39.00;14.77;;;;;;;-4.06;58.30;99890.78;5038670;28;20052;-69
2021/12/28 08:47:27;;;;;;;32.63;13.53;;;;;;;-4.04;58.52;99891.47;5043290;28;20053;-70
2021/12/28 08:49:53;;;;;;;29.50;11.83;;;;;;;-4.16;58.57;99889.19;5030391;28;20045;-68
2021/12/28 08:52:20;;;;;;;33.80;12.75;;;;;;;-4.11;58.61;99886.00;5057623;28;20041;-70
2021/12/28 08:54:47;;;;;;;27.57;11.87;;;;;;;-4.15;58.67;99888.19;5054302;28;20405;-70
2021/12/28 08:57:13;;;;;;;30.25;11.45;;;;;;;-4.13;58.76;99880.00;5041587;28;20045;-70
2021/12/28 08:59:39;;;;;;;30.53;11.23;;;;;;;-4.15;58.67;99869.50;5038285;28;20048;-69
2021/12/28 09:02:07;;;;;;;27.43;10.33;;;;;;;-4.06;58.62;99877.44;5044416;28;20048;-70
2021/12/28 09:04:34;;;;;;;28.80;11.30;;;;;;;-3.98;57.94;99877.41;5044562;28;20140;-70
2021/12/28 09:07:00;;;;;;;30.60;10.20;;;;;;;-3.91;58.07;99869.50;5046182;28;20041;-70
2021/12/28 09:09:26;;;;;;;26.97;9.97;;;;;;;-3.92;58.00;99890.03;5033175;28;20088;-70
2021/12/28 09:11:53;;;;;;;28.07;11.03;;;;;;;-3.76;57.73;99877.56;5037719;28;20041;-69
2021/12/28 09:14:19;;;;;;;25.35;9.70;;;;;;;-3.80;57.69;99868.25;5050582;28;20041;-69
2021/12/28 09:16:45;;;;;;;27.50;10.53;;;;;;;-3.68;57.66;99877.50;5039252;28;20046;-70
2021/12/28 09:19:11;;;;;;;24.03;9.47;;;;;;;-3.58;57.34;99883.47;5052919;28;20304;-71
2021/12/28 09:21:37;;;;;;;30.57;10.10;;;;;;;-3.09;56.58;99888.50;5040002;28;20447;-70
2021/12/28 09:24:03;;;;;;;31.27;11.30;;;;;;;-2.47;55.09;99868.56;5046448;28;20053;-70
2021/12/28 09:26:29;;;;;;;29.57;10.97;;;;;;;-1.64;53.83;99886.13;5038404;28;20045;-70
2021/12/28 09:28:57;;;;;;;29.83;11.67;;;;;;;-1.02;52.76;99891.78;5049157;28;20049;-68
2021/12/28 09:31:23;;;;;;;24.33;10.50;;;;;;;-0.73;52.57;99891.72;5038362;28;20045;-71
2021/12/28 09:33:49;;;;;;;26.20;11.07;;;;;;;-0.86;52.58;99890.66;5043550;28;20083;-68
2021/12/28 09:36:22;;;;;;;23.87;9.90;;;;;;;-0.43;51.86;99896.84;5046286;28;20486;-70
2021/12/28 09:38:48;;;;;;;35.70;11.23;;;;;;;-0.16;51.55;99884.34;5036603;28;20402;-69
2021/12/28 09:41:15;;;;;;;33.40;12.33;;;;;;;-0.25;51.35;99893.63;5047817;28;20041;-69
2021/12/28 09:43:41;;;;;;;35.17;13.07;;;;;;;0.27;50.52;99896.66;5044282;28;20045;-68
2021/12/28 09:46:09;;;;;;;31.50;12.80;;;;;;;0.21;50.40;99897.44;5045531;28;20316;-70
2021/12/28 09:48:36;;;;;;;33.30;12.70;;;;;;;0.18;50.39;99889.78;5041212;28;20140;-69
2021/12/28 09:51:03;;;;;;;27.60;12.18;;;;;;;0.44;49.83;99890.88;5048224;28;20057;-69
2021/12/28 09:53:29;;;;;;;30.65;11.23;;;;;;;0.14;50.25;99893.94;5038449;28;20045;-70
2021/12/28 09:55:55;;;;;;;25.13;10.38;;;;;;;-0.26;50.56;99896.50;5039843;28;20049;-69
2021/12/28 09:58:21;;;;;;;30.60;11.32;;;;;;;-0.38;50.26;99899.78;5051157;28;20063;-69
2021/12/28 10:00:47;;;;;;;26.80;11.43;;;;;;;-0.27;49.89;99903.75;5044977;28;20041;-70
2021/12/28 10:03:15;;;;;;;25.73;10.75;;;;;;;0.21;48.61;99893.94;5043088;28;20041;-68
2021/12/28 10:05:42;;;;;;;24.42;9.88;;;;;;;0.60;47.87;99900.38;5039986;28;20049;-69
2021/12/28 10:08:08;;;;;;;31.52;11.45;;;;;;;1.28;46.83;99911.94;5041142;28;20490;-69
2021/12/28 10:10:37;;;;;;;30.40;10.68;;;;;;;1.29;46.54;99908.19;5034775;28;20498;-68
2021/12/28 10:13:05;;;;;;;24.77;10.43;;;;;;;1.33;46.47;99914.84;5051813;28;20055;-69
2021/12/28 10:15:34;;;;;;;25.25;10.60;;;;;;;1.77;45.95;99914.25;5037432;28;20065;-68
2021/12/28 10:18:03;;;;;;;27.50;10.20;;;;;;;1.75;45.85;99914.50;5059215;28;20512;-68
2021/12/28 10:20:34;;;;;;;30.48;11.07;;;;;;;1.60;45.73;99895.88;5048916;28;20045;-70
2021/12/28 10:23:03;;;;;;;32.45;11.15;;;;;;;1.11;46.36;99909.69;5042710;28;20049;-69
2021/12/28 10:25:31;;;;;;;26.65;11.35;;;;;;;0.88;46.92;99917.41;5044935;28;20049;-68
2021/12/28 10:28:00;;;;;;;25.98;11.05;;;;;;;0.46;47.01;99922.94;5052950;28;20053;-69
2021/12/28 10:30:28;;;;;;;42.50;12.00;;;;;;;0.23;47.63;99924.16;5033195;28;20080;-69
2021/12/28 10:32:56;;;;;;;30.58;12.85;;;;;;;-0.04;47.91;99924.91;5038441;28;20449;-68
2021/12/28 10:35:23;;;;;;;34.00;11.95;;;;;;;-0.31;48.14;99916.75;5033059;28;20056;-69
2021/12/28 10:37:53;;;;;;;28.40;12.00;;;;;;;-0.45;48.61;99928.47;5056038;28;20052;-68
2021/12/28 10:40:28;;;;;;;25.55;11.18;;;;;;;-0.72;48.85;99921.09;5043843;28;20533;-69
2021/12/28 10:42:58;;;;;;;31.08;11.57;;;;;;;-0.88;49.15;99927.59;5043946;28;20071;-69
2021/12/28 10:45:28;;;;;;;25.80;10.73;;;;;;;-1.20;49.66;99921.78;5033737;28;20053;-68
2021/12/28 10:47:55;;;;;;;28.40;11.23;;;;;;;-1.27;49.66;99933.47;5043904;28;20048;-69
2021/12/28 10:50:36;;;;;;;34.90;11.40;;;;;;;-1.42;49.88;99939.75;5036140;28;20444;-69
2021/12/28 10:53:10;;;;;;;26.63;10.35;;;;;;;-1.48;50.18;99937.84;5054625;28;20884;-69
2021/12/28 10:55:37;;;;;;;30.37;11.10;;;;;;;-1.54;50.33;99944.00;5035086;28;20064;-69
2021/12/28 10:58:05;;;;;;;33.15;12.05;;;;;;;-1.67;50.36;99941.97;5033682;28;20060;-69
2021/12/28 11:00:34;;;;;;;27.83;11.80;;;;;;;-1.66;50.47;99946.31;5047075;28;20079;-70
2021/12/28 11:03:34;;;;;;;30.87;13.63;;;;;;;-1.69;50.40;99944.88;5030563;28;20514;-71
2021/12/28 11:06:16;;;;;;;36.60;13.27;;;;;;;-1.73;50.55;99936.38;4980176;28;20566;-69
2021/12/28 11:08:46;;;;;;;43.57;14.33;;;;;;;-1.81;50.77;99927.63;5035062;28;20056;-70
2021/12/28 11:11:15;;;;;;;31.03;12.60;;;;;;;-1.86;51.04;99934.41;5043205;28;20139;-67
2021/12/28 11:13:41;;;;;;;27.90;11.93;;;;;;;-1.96;51.09;99928.50;5047282;28;20049;-68
2021/12/28 11:16:09;;;;;;;31.30;13.93;;;;;;;-2.04;51.20;99937.47;5047206;28;20049;-69
2021/12/28 11:18:37;;;;;;;;;;;;;;;-2.16;51.57;99939.81;5037552;28;20087;-69
2021/12/28 11:21:09;;;;;;;;;;;;;;;-2.21;51.54;99942.22;5037432;28;19982;-68
2021/12/28 11:23:36;;;;;;;33.37;13.43;;;;;;;-2.38;51.74;99935.41;5060931;28;20301;-68
2021/12/28 11:26:22;;;;;;;32.73;13.77;;;;;;;-2.44;52.02;99951.22;5061223;28;20143;-67